Time;durP1;ratioP1;P1;durP2;ratioP2;P2;SDS_P1;SDS_P2;PMS_P1;PMS_P2;Temp;Humidity;BMP_temperature;BMP_pressure;BME280_temperature;BME280_humidity;BME280_pressure;Samples;Min_cycle;Max_cycle;Signal;HPM_P1;HPM_P2
2023/04/18 00:01:14;;;;;;;23.23;14.55;;;11.80;99.90;;;;;;5134462;27;20057;-70
2023/04/18 00:03:40;;;;;;;24.38;14.43;;;11.80;99.90;;;;;;5135089;27;20371;-70
2023/04/18 00:06:05;;;;;;;24.83;15.10;;;11.80;99.90;;;;;;5134181;27;20027;-70
2023/04/18 00:08:32;;;;;;;21.52;14.38;;;11.80;99.90;;;;;;5134979;27;20092;-71
2023/04/18 00:10:58;;;;;;;23.38;15.05;;;11.70;99.90;;;;;;5133713;27;20050;-71
2023/04/18 00:13:24;;;;;;;20.17;14.30;;;11.70;99.90;;;;;;5134623;27;20015;-70
2023/04/18 00:15:53;;;;;;;19.25;14.20;;;11.70;99.90;;;;;;5133644;27;20038;-70
2023/04/18 00:18:19;;;;;;;23.83;16.35;;;11.60;99.90;;;;;;5132628;27;20524;-70
2023/04/18 00:20:47;;;;;;;24.88;15.40;;;11.60;99.90;;;;;;5134181;27;20122;-70
2023/04/18 00:23:13;;;;;;;20.02;13.95;;;11.60;99.90;;;;;;5134412;27;20019;-70
2023/04/18 00:25:39;;;;;;;21.95;14.70;;;11.50;99.90;;;;;;5132531;27;20125;-70
2023/04/18 00:28:05;;;;;;;24.10;15.90;;;11.50;99.90;;;;;;5131274;27;20026;-70
2023/04/18 00:30:31;;;;;;;23.88;15.40;;;11.50;99.90;;;;;;5112531;28;20188;-70
2023/04/18 00:32:56;;;;;;;24.52;16.08;;;11.50;99.90;;;;;;5113510;28;20032;-70
2023/04/18 00:35:22;;;;;;;19.50;13.68;;;11.50;99.90;;;;;;5113680;28;20038;-70
2023/04/18 00:37:48;;;;;;;19.70;15.75;;;11.50;99.90;;;;;;5111937;28;20417;-70
2023/04/18 00:40:15;;;;;;;22.77;15.07;;;11.50;99.90;;;;;;5111486;28;20077;-70
2023/04/18 00:42:41;;;;;;;19.70;14.93;;;11.50;99.90;;;;;;5111737;28;20036;-70
2023/04/18 00:45:07;;;;;;;23.33;15.00;;;11.50;99.90;;;;;;5113454;28;20028;-70
2023/04/18 00:47:33;;;;;;;19.40;14.45;;;11.50;99.90;;;;;;5113024;28;20479;-70
2023/04/18 00:49:59;;;;;;;21.98;15.43;;;11.50;99.90;;;;;;5112437;28;20039;-70
2023/04/18 00:52:26;;;;;;;26.02;14.93;;;11.40;99.90;;;;;;5112026;28;20061;-70
2023/04/18 00:54:52;;;;;;;20.90;13.93;;;11.40;99.90;;;;;;5113446;28;20024;-70
2023/04/18 00:57:18;;;;;;;21.08;15.32;;;11.40;99.90;;;;;;5113553;28;20534;-70
2023/04/18 00:59:46;;;;;;;20.60;14.93;;;11.40;99.90;;;;;;5113500;28;20103;-70
2023/04/18 01:02:11;;;;;;;24.52;14.50;;;11.30;99.90;;;;;;5112063;28;20016;-70
2023/04/18 01:04:37;;;;;;;21.80;14.23;;;11.30;99.90;;;;;;5113551;28;20031;-70
2023/04/18 01:07:03;;;;;;;23.40;14.50;;;11.30;99.90;;;;;;5112660;28;20039;-69
2023/04/18 01:09:30;;;;;;;23.25;16.63;;;11.30;99.90;;;;;;5130632;27;20122;-70
2023/04/18 01:11:55;;;;;;;20.83;14.90;;;11.20;99.90;;;;;;5132247;27;20046;-70
2023/04/18 01:14:21;;;;;;;25.23;15.30;;;11.20;99.90;;;;;;5133293;27;20023;-70
2023/04/18 01:16:47;;;;;;;20.92;14.18;;;11.20;99.90;;;;;;5133827;27;20051;-69
2023/04/18 01:19:14;;;;;;;20.65;14.10;;;11.20;99.90;;;;;;5133157;27;20045;-70
2023/04/18 01:21:42;;;;;;;22.52;14.00;;;11.20;99.90;;;;;;5133515;27;20023;-70
2023/04/18 01:24:14;;;;;;;23.40;14.88;;;11.10;99.90;;;;;;5132860;27;20016;-70
2023/04/18 01:26:42;;;;;;;19.98;14.50;;;11.10;99.90;;;;;;5133863;27;20032;-71
2023/04/18 01:29:08;;;;;;;20.98;13.82;;;11.10;99.90;;;;;;5133588;27;20027;-70
2023/04/18 01:31:37;;;;;;;19.85;14.45;;;11.00;99.90;;;;;;5124059;27;20034;-71
2023/04/18 01:34:04;;;;;;;21.73;14.70;;;10.90;99.90;;;;;;5125568;28;20098;-71
2023/04/18 01:36:30;;;;;;;21.33;14.60;;;10.90;99.90;;;;;;5131150;28;20020;-70
2023/04/18 01:38:56;;;;;;;20.90;14.30;;;10.80;99.90;;;;;;5133307;27;20024;-71
2023/04/18 01:41:22;;;;;;;21.52;14.13;;;10.80;99.90;;;;;;5132951;27;20031;-70
2023/04/18 01:43:48;;;;;;;21.63;14.07;;;10.80;99.90;;;;;;5132990;27;20098;-70
2023/04/18 01:46:13;;;;;;;18.98;14.15;;;10.70;99.90;;;;;;5117965;28;20028;-71
2023/04/18 01:48:39;;;;;;;20.00;12.85;;;10.60;99.90;;;;;;5111736;28;20020;-70
2023/04/18 01:51:05;;;;;;;19.58;13.65;;;10.60;99.90;;;;;;5112699;28;20039;-71
2023/04/18 01:53:31;;;;;;;22.80;13.60;;;10.50;99.90;;;;;;5112798;28;20023;-71
2023/04/18 01:55:59;;;;;;;19.00;12.88;;;10.40;99.90;;;;;;5111198;28;20031;-70
2023/04/18 01:58:25;;;;;;;22.02;12.70;;;10.40;99.90;;;;;;5112156;28;20101;-71
2023/04/18 02:00:56;;;;;;;19.98;12.68;;;10.40;99.90;;;;;;5119936;27;20056;-71
2023/04/18 02:03:23;;;;;;;18.23;12.60;;;10.30;99.90;;;;;;5137450;27;20019;-71
2023/04/18 02:05:49;;;;;;;17.73;11.68;;;10.30;99.90;;;;;;5135796;27;20034;-71
2023/04/18 02:08:14;;;;;;;16.80;12.88;;;10.20;99.90;;;;;;5137169;27;20102;-70
2023/04/18 02:10:41;;;;;;;21.30;12.77;;;10.30;99.90;;;;;;5137249;27;20488;-71
2023/04/18 02:13:07;;;;;;;20.00;12.63;;;10.20;99.90;;;;;;5137214;27;20485;-71
2023/04/18 02:15:33;;;;;;;17.67;12.75;;;10.30;99.90;;;;;;5136998;27;20016;-70
2023/04/18 02:17:59;;;;;;;16.70;12.10;;;10.30;99.90;;;;;;5135854;27;20072;-71
2023/04/18 02:20:25;;;;;;;16.38;11.77;;;10.20;99.90;;;;;;5136748;27;20473;-71
2023/04/18 02:22:51;;;;;;;20.25;11.82;;;10.20;99.90;;;;;;5136513;27;20015;-71
2023/04/18 02:25:17;;;;;;;18.27;11.48;;;10.20;99.90;;;;;;5135842;27;20034;-70
2023/04/18 02:27:43;;;;;;;16.90;12.38;;;10.20;99.90;;;;;;5136531;27;20362;-71
2023/04/18 02:30:09;;;;;;;16.60;12.68;;;10.20;99.90;;;;;;5135895;27;20049;-71
2023/04/18 02:32:35;;;;;;;17.77;11.38;;;10.20;99.90;;;;;;5137001;27;20076;-71
2023/04/18 02:35:00;;;;;;;15.55;11.35;;;10.20;99.90;;;;;;5135518;27;20425;-71
2023/04/18 02:37:26;;;;;;;19.40;11.82;;;10.10;99.90;;;;;;5136764;27;20424;-71
2023/04/18 02:39:52;;;;;;;16.50;11.48;;;10.10;99.90;;;;;;5136654;27;20023;-70
2023/04/18 02:42:18;;;;;;;14.02;10.77;;;10.00;99.90;;;;;;5136751;27;20509;-70
2023/04/18 02:44:44;;;;;;;15.20;11.57;;;10.00;99.90;;;;;;5136947;27;20051;-70
2023/04/18 02:47:09;;;;;;;18.85;12.80;;;9.90;99.90;;;;;;5136568;27;20023;-70
2023/04/18 02:49:35;;;;;;;19.02;13.63;;;9.90;99.90;;;;;;5136327;27;20046;-71
2023/04/18 02:52:01;;;;;;;16.73;11.60;;;10.00;99.90;;;;;;5136725;27;20020;-70
2023/04/18 02:54:26;;;;;;;18.95;11.63;;;9.90;99.90;;;;;;5136218;27;20023;-70
2023/04/18 02:56:55;;;;;;;20.13;12.82;;;9.90;99.90;;;;;;5136530;27;20023;-71
2023/04/18 02:59:21;;;;;;;18.17;12.55;;;9.90;99.90;;;;;;5136539;27;20008;-70
2023/04/18 03:01:47;;;;;;;18.83;12.15;;;9.90;99.90;;;;;;5132614;27;20102;-71
2023/04/18 03:04:12;;;;;;;19.45;11.90;;;9.80;99.90;;;;;;5135108;27;20023;-71
2023/04/18 03:06:38;;;;;;;19.45;12.35;;;9.80;99.90;;;;;;5134817;27;20051;-70
2023/04/18 03:09:04;;;;;;;17.45;12.13;;;9.60;99.90;;;;;;5134121;27;20027;-70
2023/04/18 03:11:29;;;;;;;19.10;12.77;;;9.60;99.90;;;;;;5129024;27;20059;-71
2023/04/18 03:13:55;;;;;;;20.27;12.35;;;9.60;99.90;;;;;;5136090;27;20035;-70
2023/04/18 03:16:21;;;;;;;18.05;12.98;;;9.50;99.90;;;;;;5134062;27;20018;-71
2023/04/18 03:18:47;;;;;;;20.58;12.90;;;9.50;99.90;;;;;;5134839;27;20471;-71
2023/04/18 03:21:13;;;;;;;20.10;12.70;;;9.50;99.90;;;;;;5135912;27;20023;-70
2023/04/18 03:23:39;;;;;;;22.08;12.50;;;9.50;99.90;;;;;;5135879;27;20377;-71
2023/04/18 03:26:06;;;;;;;21.83;13.30;;;9.50;99.90;;;;;;5135725;27;20019;-71
2023/04/18 03:28:32;;;;;;;19.90;12.27;;;9.50;99.90;;;;;;5136328;27;20038;-70
2023/04/18 03:30:58;;;;;;;20.50;12.98;;;9.50;99.90;;;;;;5135724;27;20499;-72
2023/04/18 03:33:23;;;;;;;21.83;13.95;;;9.40;99.90;;;;;;5135588;27;20102;-70
2023/04/18 03:35:49;;;;;;;18.52;12.25;;;9.30;99.90;;;;;;5134389;27;20106;-70
2023/04/18 03:38:15;;;;;;;19.23;12.63;;;9.40;99.90;;;;;;5135615;27;20437;-71
2023/04/18 03:40:43;;;;;;;19.35;13.38;;;9.40;99.90;;;;;;5135497;27;20027;-70
2023/04/18 03:43:09;;;;;;;17.77;12.15;;;9.40;99.90;;;;;;5133505;27;20467;-70
2023/04/18 03:45:35;;;;;;;18.90;12.75;;;9.30;99.90;;;;;;5132394;27;20114;-70
2023/04/18 03:48:01;;;;;;;20.80;12.40;;;9.20;99.90;;;;;;5127936;27;20487;-71
2023/04/18 03:50:27;;;;;;;21.75;14.05;;;9.10;99.90;;;;;;5114439;28;20373;-70
2023/04/18 03:52:53;;;;;;;18.35;12.73;;;9.10;99.90;;;;;;5113890;28;20022;-71
2023/04/18 03:55:19;;;;;;;19.50;13.48;;;9.10;99.90;;;;;;5114531;28;20028;-71
2023/04/18 03:57:46;;;;;;;16.85;12.98;;;9.10;99.90;;;;;;5114185;28;20012;-70
2023/04/18 04:00:12;;;;;;;19.27;13.38;;;9.10;99.90;;;;;;5113977;28;20802;-71
2023/04/18 04:02:38;;;;;;;18.05;13.00;;;9.10;99.90;;;;;;5114375;28;20471;-71
2023/04/18 04:05:04;;;;;;;21.67;14.70;;;9.00;99.90;;;;;;5114023;28;20020;-72
2023/04/18 04:07:33;;;;;;;19.80;13.00;;;9.10;99.90;;;;;;5112723;28;20043;-70
2023/04/18 04:09:59;;;;;;;19.23;13.95;;;9.00;99.90;;;;;;5113576;28;20529;-70
2023/04/18 04:12:26;;;;;;;17.83;13.43;;;9.10;99.90;;;;;;5112655;28;20221;-71
2023/04/18 04:14:52;;;;;;;17.92;13.32;;;9.00;99.90;;;;;;5112902;28;20031;-71
2023/04/18 04:17:17;;;;;;;21.05;13.55;;;9.00;99.90;;;;;;5113768;28;20047;-70
2023/04/18 04:19:43;;;;;;;19.50;13.55;;;8.90;99.90;;;;;;5122124;27;20058;-71
2023/04/18 04:22:09;;;;;;;19.95;13.95;;;8.90;99.90;;;;;;5133163;27;20019;-71
2023/04/18 04:24:37;;;;;;;19.60;13.35;;;8.90;99.90;;;;;;5134608;27;20383;-71
2023/04/18 04:27:04;;;;;;;20.27;14.10;;;8.90;99.90;;;;;;5134433;27;20068;-71
2023/04/18 04:29:30;;;;;;;19.98;13.60;;;8.80;99.90;;;;;;5133173;27;20459;-70
2023/04/18 04:31:55;;;;;;;20.23;14.75;;;8.70;99.90;;;;;;5131006;27;20015;-70
2023/04/18 04:34:21;;;;;;;21.08;14.90;;;8.70;99.90;;;;;;5134356;27;20701;-70
2023/04/18 04:36:47;;;;;;;19.80;14.35;;;8.70;99.90;;;;;;5115914;27;20016;-70
2023/04/18 04:39:14;;;;;;;17.15;12.93;;;8.70;99.90;;;;;;5111947;28;20032;-70
2023/04/18 04:41:39;;;;;;;19.02;13.50;;;8.60;99.90;;;;;;5113989;28;20039;-71
2023/04/18 04:44:06;;;;;;;19.15;13.60;;;8.60;99.90;;;;;;5113841;28;20360;-70
2023/04/18 04:46:32;;;;;;;18.33;12.88;;;8.50;99.90;;;;;;5113465;28;20076;-71
2023/04/18 04:48:59;;;;;;;17.95;13.75;;;8.60;99.90;;;;;;5113614;28;20472;-71
2023/04/18 04:51:26;;;;;;;15.93;12.20;;;8.60;99.90;;;;;;5112982;28;20019;-70
2023/04/18 04:53:52;;;;;;;17.02;13.18;;;8.50;99.90;;;;;;5112398;28;20037;-71
2023/04/18 04:56:18;;;;;;;20.30;14.35;;;8.60;99.90;;;;;;5128353;27;20118;-70
2023/04/18 04:58:44;;;;;;;19.83;13.85;;;8.60;99.90;;;;;;5134072;27;20410;-70
2023/04/18 05:01:11;;;;;;;17.05;13.60;;;8.60;99.90;;;;;;5133798;27;20059;-70
2023/04/18 05:03:36;;;;;;;16.08;12.07;;;8.60;99.90;;;;;;5134018;27;20050;-71
2023/04/18 05:06:02;;;;;;;17.65;12.82;;;8.60;99.90;;;;;;5132549;27;20060;-71
2023/04/18 05:08:28;;;;;;;20.83;13.23;;;8.50;99.90;;;;;;5133844;27;20027;-70
2023/04/18 05:10:54;;;;;;;15.77;11.43;;;8.50;99.90;;;;;;5133390;27;20043;-70
2023/04/18 05:13:20;;;;;;;21.10;13.10;;;8.50;99.90;;;;;;5132479;27;20490;-71
2023/04/18 05:15:46;;;;;;;18.90;12.32;;;8.50;99.90;;;;;;5133521;27;20066;-71
2023/04/18 05:18:13;;;;;;;18.08;11.75;;;8.50;99.90;;;;;;5133456;27;20541;-71
2023/04/18 05:20:39;;;;;;;16.08;12.38;;;8.50;99.90;;;;;;5133091;27;20509;-70
2023/04/18 05:23:04;;;;;;;18.50;12.52;;;8.60;99.90;;;;;;5133711;27;20507;-70
2023/04/18 05:25:31;;;;;;;19.20;13.50;;;8.50;99.90;;;;;;5133474;27;20026;-70
2023/04/18 05:27:58;;;;;;;19.05;13.15;;;8.60;99.90;;;;;;5133560;27;20023;-71
2023/04/18 05:30:24;;;;;;;19.70;12.85;;;8.70;99.90;;;;;;5131970;27;20031;-70
2023/04/18 05:32:50;;;;;;;16.73;12.88;;;8.70;99.90;;;;;;5133134;27;20152;-69
2023/04/18 05:35:16;;;;;;;18.48;13.02;;;8.70;99.90;;;;;;5131733;27;20031;-70
2023/04/18 05:37:41;;;;;;;18.73;13.50;;;8.70;99.90;;;;;;5133760;27;20445;-71
2023/04/18 05:40:08;;;;;;;18.85;12.73;;;8.60;99.90;;;;;;5133167;28;20114;-71
2023/04/18 05:42:33;;;;;;;17.60;12.30;;;8.70;99.90;;;;;;5132713;27;20459;-71
2023/04/18 05:44:59;;;;;;;18.48;11.55;;;8.60;99.90;;;;;;5133376;28;20023;-70
2023/04/18 05:47:27;;;;;;;15.98;12.38;;;8.50;99.90;;;;;;5132309;27;20089;-70
2023/04/18 05:49:53;;;;;;;15.75;11.20;;;8.50;99.90;;;;;;5131206;27;20035;-70
2023/04/18 05:52:19;;;;;;;16.67;11.93;;;8.60;99.90;;;;;;5133498;27;20023;-70
2023/04/18 05:54:45;;;;;;;16.77;12.48;;;8.60;99.90;;;;;;5132592;27;20084;-71
2023/04/18 05:57:10;;;;;;;17.45;12.07;;;8.50;99.90;;;;;;5131443;28;20049;-68
2023/04/18 05:59:36;;;;;;;15.35;11.73;;;8.50;99.90;;;;;;5132093;27;20456;-71
2023/04/18 06:02:02;;;;;;;14.98;11.50;;;8.50;99.90;;;;;;5130497;28;20038;-72
2023/04/18 06:04:27;;;;;;;20.05;12.90;;;8.60;99.90;;;;;;5127177;28;20035;-70
2023/04/18 06:06:53;;;;;;;18.83;13.43;;;8.50;99.90;;;;;;5133082;28;20042;-71
2023/04/18 06:09:20;;;;;;;21.95;13.13;;;8.50;99.90;;;;;;5132806;27;20019;-72
2023/04/18 06:11:46;;;;;;;23.30;12.23;;;8.40;99.90;;;;;;5130075;27;20075;-72
2023/04/18 06:14:12;;;;;;;19.05;12.50;;;8.40;99.90;;;;;;5131801;27;20022;-72
2023/04/18 06:16:37;;;;;;;16.25;11.93;;;8.40;99.90;;;;;;5133120;28;20019;-72
2023/04/18 06:19:04;;;;;;;19.83;11.85;;;8.40;99.90;;;;;;5132186;28;20387;-72
2023/04/18 06:21:29;;;;;;;17.95;11.65;;;8.40;99.90;;;;;;5132201;27;20018;-72
2023/04/18 06:23:55;;;;;;;19.73;12.30;;;8.50;99.90;;;;;;5130313;27;20119;-71
2023/04/18 06:26:21;;;;;;;17.58;11.13;;;8.40;99.90;;;;;;5140658;27;20019;-73
2023/04/18 06:28:46;;;;;;;19.23;12.90;;;8.40;99.90;;;;;;5132697;28;20035;-71
2023/04/18 06:31:12;;;;;;;19.13;12.82;;;8.50;99.90;;;;;;5129818;28;20022;-72
2023/04/18 06:33:38;;;;;;;15.88;11.98;;;8.50;99.90;;;;;;5132149;28;20037;-71
2023/04/18 06:36:04;;;;;;;16.92;11.85;;;8.60;99.90;;;;;;5131322;28;20019;-72
2023/04/18 06:38:30;;;;;;;16.65;12.30;;;8.60;99.90;;;;;;5131662;27;20463;-72
2023/04/18 06:40:56;;;;;;;21.67;13.75;;;8.60;99.90;;;;;;5132149;27;20505;-72
2023/04/18 06:43:22;;;;;;;19.45;12.73;;;8.70;99.90;;;;;;5132652;28;20023;-72
2023/04/18 06:45:47;;;;;;;17.20;12.32;;;8.90;99.90;;;;;;5132702;27;20023;-72
2023/04/18 06:48:13;;;;;;;16.38;12.85;;;8.90;99.90;;;;;;5129988;27;20091;-72
2023/04/18 06:50:39;;;;;;;18.33;12.45;;;9.00;99.90;;;;;;5132931;27;20030;-72
2023/04/18 06:53:04;;;;;;;16.98;13.68;;;9.00;99.90;;;;;;5129347;27;20031;-72
2023/04/18 06:55:32;;;;;;;17.25;12.70;;;9.10;99.90;;;;;;5129231;27;20075;-72
2023/04/18 06:57:59;;;;;;;19.77;13.68;;;9.10;99.90;;;;;;5134590;27;20102;-72
2023/04/18 07:00:25;;;;;;;16.48;13.07;;;9.20;99.90;;;;;;5135583;27;20020;-72
2023/04/18 07:02:51;;;;;;;16.02;12.00;;;9.20;99.90;;;;;;5133978;27;20018;-72
2023/04/18 07:05:17;;;;;;;18.23;13.95;;;9.20;99.90;;;;;;5135958;27;20031;-71
2023/04/18 07:07:42;;;;;;;19.25;13.38;;;9.30;99.90;;;;;;5131896;27;20100;-72
2023/04/18 07:10:10;;;;;;;18.48;13.15;;;9.50;99.90;;;;;;5134633;27;20043;-72
2023/04/18 07:12:35;;;;;;;19.30;13.00;;;9.50;99.90;;;;;;5134734;27;20387;-71
2023/04/18 07:15:02;;;;;;;16.02;11.98;;;9.60;99.90;;;;;;5134991;27;20023;-72
2023/04/18 07:17:28;;;;;;;15.88;11.68;;;9.70;99.90;;;;;;5134043;27;20015;-72
2023/04/18 07:19:54;;;;;;;15.38;12.55;;;9.80;99.90;;;;;;5135459;27;20023;-72
2023/04/18 07:22:19;;;;;;;16.67;13.23;;;10.00;99.90;;;;;;5133289;27;20027;-72
2023/04/18 07:24:45;;;;;;;18.08;11.98;;;10.10;99.90;;;;;;5103738;27;20059;-72
2023/04/18 07:27:11;;;;;;;15.85;12.02;;;10.00;99.90;;;;;;5115876;27;20168;-72
2023/04/18 07:29:37;;;;;;;18.08;12.77;;;10.20;99.90;;;;;;5115699;27;20043;-72
2023/04/18 07:32:03;;;;;;;19.67;13.73;;;10.30;99.90;;;;;;5115746;27;20454;-72
2023/04/18 07:34:32;;;;;;;15.05;12.25;;;10.40;99.90;;;;;;5118375;27;20023;-72
2023/04/18 07:36:58;;;;;;;21.58;12.75;;;10.40;99.90;;;;;;5116851;27;20478;-72
2023/04/18 07:39:24;;;;;;;18.50;13.10;;;10.40;99.90;;;;;;5113565;27;20028;-72
2023/04/18 07:41:50;;;;;;;15.77;12.32;;;10.40;99.90;;;;;;5115620;27;20623;-73
2023/04/18 07:44:17;;;;;;;18.83;12.93;;;10.50;99.90;;;;;;5112840;27;20050;-73
2023/04/18 07:46:42;;;;;;;16.20;13.13;;;10.70;99.90;;;;;;5120113;27;20031;-73
2023/04/18 07:49:08;;;;;;;18.40;12.80;;;10.80;99.90;;;;;;5114321;27;20039;-73
2023/04/18 07:51:34;;;;;;;16.02;13.32;;;10.80;99.90;;;;;;5114853;27;20033;-73
2023/04/18 07:54:01;;;;;;;23.15;13.70;;;10.70;99.90;;;;;;5115725;27;20007;-73
2023/04/18 07:56:28;;;;;;;16.77;12.80;;;10.90;99.90;;;;;;5096537;28;20032;-73
2023/04/18 07:58:54;;;;;;;16.63;13.05;;;10.90;99.90;;;;;;5119422;27;20027;-73
2023/04/18 08:01:23;;;;;;;19.98;14.32;;;10.70;99.90;;;;;;5118812;27;20371;-73
2023/04/18 08:03:50;;;;;;;22.17;14.57;;;10.80;99.90;;;;;;5114715;27;20020;-72
2023/04/18 08:06:16;;;;;;;20.10;14.07;;;10.70;99.90;;;;;;5119304;27;20019;-73
2023/04/18 08:08:44;;;;;;;18.55;13.68;;;10.80;99.90;;;;;;5115333;27;20070;-72
2023/04/18 08:11:12;;;;;;;19.92;13.80;;;10.80;99.90;;;;;;5115851;27;20072;-73
2023/04/18 08:13:38;;;;;;;17.95;12.32;;;10.60;99.90;;;;;;5117648;27;20057;-73
2023/04/18 08:16:05;;;;;;;17.38;13.20;;;10.90;99.90;;;;;;5115590;27;20055;-73
2023/04/18 08:18:31;;;;;;;17.20;13.23;;;11.00;99.90;;;;;;5114633;27;20031;-73
2023/04/18 08:20:57;;;;;;;19.92;14.05;;;11.00;99.90;;;;;;5119048;27;20023;-74
2023/04/18 08:23:24;;;;;;;18.10;13.82;;;10.90;99.90;;;;;;5099737;27;20399;-73
2023/04/18 08:25:50;;;;;;;23.50;14.15;;;10.90;99.90;;;;;;5119067;27;20031;-73
2023/04/18 08:28:18;;;;;;;17.52;12.63;;;11.10;99.90;;;;;;5118095;27;20026;-74
2023/04/18 08:30:47;;;;;;;18.05;13.63;;;11.20;99.90;;;;;;5099301;27;20061;-73
2023/04/18 08:33:15;;;;;;;20.70;14.13;;;11.40;99.90;;;;;;5117899;27;20023;-73
2023/04/18 08:35:41;;;;;;;18.92;14.48;;;11.40;99.90;;;;;;5115983;27;20062;-73
2023/04/18 08:38:08;;;;;;;18.63;12.80;;;11.50;99.90;;;;;;5115785;27;20036;-73
2023/04/18 08:40:34;;;;;;;18.23;12.60;;;11.60;99.90;;;;;;5112576;27;20200;-73
2023/04/18 08:43:03;;;;;;;16.38;13.10;;;11.80;99.90;;;;;;5120388;27;20364;-73
2023/04/18 08:45:30;;;;;;;17.00;13.35;;;12.10;99.90;;;;;;5110992;27;20019;-73
2023/04/18 08:48:00;;;;;;;16.33;12.55;;;12.30;99.90;;;;;;5113323;27;20472;-73
2023/04/18 08:50:26;;;;;;;21.40;13.32;;;12.20;99.90;;;;;;5116753;27;20040;-73
2023/04/18 08:52:54;;;;;;;16.80;13.68;;;12.40;99.90;;;;;;5118618;27;20531;-73
2023/04/18 08:55:24;;;;;;;15.98;13.38;;;12.50;99.90;;;;;;5114307;27;20019;-73
2023/04/18 08:57:52;;;;;;;16.88;13.35;;;12.40;99.90;;;;;;5112897;27;20455;-73
2023/04/18 09:00:19;;;;;;;17.35;12.95;;;12.40;99.90;;;;;;5116945;27;20051;-73
2023/04/18 09:02:45;;;;;;;18.88;13.95;;;12.50;99.90;;;;;;5114152;27;20019;-73
2023/04/18 09:05:20;;;;;;;13.90;12.02;;;12.80;99.90;;;;;;5115039;27;20015;-73
2023/04/18 09:07:51;;;;;;;15.75;11.95;;;13.00;99.90;;;;;;5110708;27;20020;-74
2023/04/18 09:10:32;;;;;;;18.27;13.97;;;12.90;99.90;;;;;;5111987;27;20032;-73
2023/04/18 09:12:59;;;;;;;16.45;14.00;;;12.90;99.90;;;;;;5115006;27;20282;-73
2023/04/18 09:15:27;;;;;;;17.13;14.30;;;13.20;99.90;;;;;;5117656;27;20023;-73
2023/04/18 09:18:01;;;;;;;19.50;16.08;;;13.30;99.90;;;;;;5115509;27;20050;-73
2023/04/18 09:20:33;;;;;;;17.15;14.90;;;13.30;99.90;;;;;;5111669;27;20023;-73
2023/04/18 09:23:02;;;;;;;17.67;15.73;;;13.50;99.90;;;;;;5115485;27;20042;-73
2023/04/18 09:25:45;;;;;;;18.27;13.98;;;13.50;99.90;;;;;;5113716;27;20058;-73
2023/04/18 09:28:27;;;;;;;;;;;13.60;99.90;;;;;;5113244;27;20023;-73
2023/04/18 09:30:58;;;;;;;20.83;15.18;;;13.20;99.90;;;;;;5113318;27;19923;-73
2023/04/18 09:33:31;;;;;;;19.35;13.80;;;13.20;99.90;;;;;;5111398;28;20016;-73
2023/04/18 09:36:22;;;;;;;18.30;13.65;;;13.20;99.90;;;;;;5113858;27;20084;-73
2023/04/18 09:38:50;;;;;;;16.25;13.52;;;13.00;99.90;;;;;;5117660;28;20016;-73
2023/04/18 09:41:16;;;;;;;17.17;13.60;;;13.00;99.90;;;;;;5116385;28;20027;-73
2023/04/18 09:43:44;;;;;;;17.98;13.88;;;13.00;99.90;;;;;;5113405;27;20027;-73
2023/04/18 09:46:11;;;;;;;16.95;13.63;;;12.90;99.90;;;;;;5114769;28;20027;-73
2023/04/18 09:48:41;;;;;;;17.85;14.55;;;13.00;99.90;;;;;;5116741;28;20384;-73
2023/04/18 09:51:09;;;;;;;18.00;14.07;;;13.00;99.90;;;;;;5112728;28;20034;-74
2023/04/18 09:53:40;;;;;;;16.40;14.68;;;13.00;99.90;;;;;;5112286;27;20033;-73
2023/04/18 09:56:15;;;;;;;18.52;15.45;;;13.20;99.90;;;;;;5115148;27;20019;-73
2023/04/18 09:58:42;;;;;;;18.65;15.48;;;13.30;99.90;;;;;;5110884;28;20038;-74
2023/04/18 10:01:09;;;;;;;19.10;16.35;;;13.30;99.90;;;;;;5113370;28;20058;-74
2023/04/18 10:03:43;;;;;;;19.80;17.75;;;13.00;99.90;;;;;;5110741;28;20027;-73
2023/04/18 10:06:10;;;;;;;21.30;18.45;;;13.10;99.90;;;;;;5113413;28;20016;-73
2023/04/18 10:08:37;;;;;;;21.30;17.15;;;13.10;99.90;;;;;;5114013;28;20048;-73
2023/04/18 10:11:02;;;;;;;15.77;13.80;;;13.10;99.90;;;;;;5115310;28;20365;-73
2023/04/18 10:13:29;;;;;;;14.45;11.07;;;13.20;99.90;;;;;;5112230;28;20544;-73
2023/04/18 10:15:55;;;;;;;10.77;9.63;;;13.30;99.90;;;;;;5113500;27;20054;-73
2023/04/18 10:18:23;;;;;;;12.32;8.70;;;13.20;99.90;;;;;;5116121;27;20353;-73
2023/04/18 10:20:48;;;;;;;10.77;8.73;;;13.40;99.90;;;;;;5121466;27;20414;-73
2023/04/18 10:23:34;;;;;;;13.50;9.43;;;13.70;99.90;;;;;;5122971;27;20027;-74
2023/04/18 10:26:01;;;;;;;11.35;9.93;;;13.70;99.90;;;;;;5113175;27;20052;-73
2023/04/18 10:28:48;;;;;;;12.48;9.77;;;13.60;99.90;;;;;;5116925;27;20063;-73
2023/04/18 10:31:15;;;;;;;11.50;10.30;;;13.50;99.90;;;;;;5121010;27;20195;-73
2023/04/18 10:33:54;;;;;;;13.90;10.25;;;13.70;99.90;;;;;;5118242;27;20030;-73
2023/04/18 10:36:20;;;;;;;15.88;10.13;;;13.60;99.90;;;;;;5119230;27;20023;-73
2023/04/18 10:39:13;;;;;;;14.52;11.43;;;13.60;99.90;;;;;;5116173;27;20156;-73
2023/04/18 10:41:48;;;;;;;11.05;9.93;;;13.80;99.90;;;;;;5115803;27;20039;-73
2023/04/18 10:44:17;;;;;;;12.68;11.25;;;13.70;99.90;;;;;;5115110;27;20032;-74
2023/04/18 10:47:05;;;;;;;17.27;13.57;;;13.60;99.90;;;;;;5117368;27;20046;-73
2023/04/18 10:49:31;;;;;;;16.23;12.43;;;13.30;99.90;;;;;;5114091;27;20091;-72
2023/04/18 10:51:58;;;;;;;18.15;14.70;;;13.30;99.90;;;;;;5118023;27;20435;-73
2023/04/18 10:54:50;;;;;;;16.15;14.27;;;13.20;99.90;;;;;;5115237;27;20730;-74
2023/04/18 10:57:16;;;;;;;19.65;14.00;;;13.20;99.90;;;;;;5119910;27;20490;-72
2023/04/18 10:59:46;;;;;;;17.30;14.25;;;13.30;99.90;;;;;;5116927;27;20032;-73
2023/04/18 11:02:18;;;;;;;17.20;14.80;;;13.40;99.90;;;;;;5115718;27;20031;-73
2023/04/18 11:04:55;;;;;;;16.63;14.57;;;13.40;99.90;;;;;;5117360;27;20036;-73
2023/04/18 11:07:47;;;;;;;17.35;15.35;;;13.40;99.90;;;;;;5117752;27;20072;-73
2023/04/18 11:10:19;;;;;;;16.65;14.93;;;13.30;99.90;;;;;;5119454;27;20084;-74
2023/04/18 11:12:45;;;;;;;17.55;15.10;;;13.30;99.90;;;;;;5120491;27;20031;-74
2023/04/18 11:15:22;;;;;;;18.75;15.60;;;13.10;99.90;;;;;;5116221;27;20046;-72
2023/04/18 11:18:14;;;;;;;17.73;15.85;;;13.10;99.90;;;;;;5117278;27;20384;-73
2023/04/18 11:20:47;;;;;;;20.83;17.35;;;13.30;99.90;;;;;;5114492;27;20391;-73
2023/04/18 11:23:23;;;;;;;21.48;17.38;;;13.30;99.90;;;;;;5116157;27;20043;-73
2023/04/18 11:25:52;;;;;;;21.55;15.77;;;13.30;99.90;;;;;;5112233;27;20030;-73
2023/04/18 11:28:20;;;;;;;22.40;16.67;;;13.20;99.90;;;;;;5114406;27;20011;-74
2023/04/18 11:30:47;;;;;;;21.77;17.88;;;13.40;99.90;;;;;;5118253;27;20066;-73
2023/04/18 11:33:13;;;;;;;19.00;16.45;;;13.20;99.90;;;;;;5114249;27;20030;-74
2023/04/18 11:35:45;;;;;;;25.30;16.88;;;13.40;99.90;;;;;;5116111;27;20012;-73
2023/04/18 11:38:14;;;;;;;19.73;16.35;;;13.30;99.90;;;;;;5117658;27;20547;-73
2023/04/18 11:40:49;;;;;;;20.05;17.15;;;13.20;99.90;;;;;;5116624;27;20435;-74
2023/04/18 11:43:23;;;;;;;22.27;17.65;;;13.40;99.90;;;;;;5114877;27;20100;-73
2023/04/18 11:45:53;;;;;;;19.75;15.63;;;13.60;99.90;;;;;;5116910;27;20015;-73
2023/04/18 11:48:19;;;;;;;23.05;18.23;;;13.70;99.90;;;;;;5116646;27;20483;-71
2023/04/18 11:50:44;;;;;;;25.90;18.42;;;13.90;99.90;;;;;;5114779;27;20084;-73
2023/04/18 11:53:10;;;;;;;18.67;16.20;;;14.00;99.90;;;;;;5119365;27;20030;-73
2023/04/18 11:55:36;;;;;;;21.67;17.30;;;14.10;99.90;;;;;;5115771;27;20532;-74
2023/04/18 11:58:03;;;;;;;21.75;17.45;;;14.10;99.90;;;;;;5114070;27;20106;-73
2023/04/18 12:00:37;;;;;;;20.75;16.85;;;14.20;99.90;;;;;;5112199;27;20024;-73
2023/04/18 12:03:06;;;;;;;21.55;16.15;;;14.80;99.90;;;;;;5118200;27;20036;-72
2023/04/18 12:05:36;;;;;;;19.40;17.33;;;14.60;99.90;;;;;;5116329;27;20024;-73
2023/04/18 12:08:12;;;;;;;23.40;18.92;;;14.30;99.90;;;;;;5116950;27;20028;-73
2023/04/18 12:10:51;;;;;;;20.65;16.58;;;14.20;99.90;;;;;;5112238;27;20128;-73
2023/04/18 12:13:22;;;;;;;20.15;17.98;;;14.30;99.90;;;;;;5114392;27;20019;-72
2023/04/18 12:15:48;;;;;;;20.67;17.48;;;14.20;99.90;;;;;;5115684;27;20078;-73
2023/04/18 12:18:16;;;;;;;23.13;17.83;;;14.20;99.90;;;;;;5113346;27;20435;-73
2023/04/18 12:20:48;;;;;;;24.83;18.63;;;14.20;99.90;;;;;;5115394;27;20046;-72
2023/04/18 12:23:30;;;;;;;23.65;20.15;;;14.20;99.90;;;;;;5111904;27;20027;-72
2023/04/18 12:26:06;;;;;;;24.65;20.52;;;14.20;99.90;;;;;;5117900;27;20023;-72
2023/04/18 12:28:33;;;;;;;25.00;18.90;;;14.40;99.90;;;;;;5117203;27;20087;-73
2023/04/18 12:30:59;;;;;;;21.67;18.48;;;14.40;99.90;;;;;;5114447;27;20427;-73
2023/04/18 12:33:25;;;;;;;22.80;20.08;;;14.20;99.90;;;;;;5112501;27;20023;-73